Time;durP1;ratioP1;P1;durP2;ratioP2;P2;SDS_P1;SDS_P2;PMS_P1;PMS_P2;Temp;Humidity;BMP_temperature;BMP_pressure;BME280_temperature;BME280_humidity;BME280_pressure;Samples;Min_cycle;Max_cycle;Signal;HPM_P1;HPM_P2
2022/04/27 00:02:01;;;;;;;6.72;4.47;;;358.60;2329.60;;;;;;4922239;29;20035;-83
2022/04/27 00:04:28;;;;;;;8.15;4.80;;;358.60;2329.60;;;;;;4922903;29;20055;-83
2022/04/27 00:06:54;;;;;;;7.15;4.63;;;333.40;2329.60;;;;;;4923446;29;20027;-85
2022/04/27 00:09:22;;;;;;;12.45;7.07;;;358.40;2329.60;;;;;;4922979;29;20050;-85
2022/04/27 00:11:55;;;;;;;10.25;5.32;;;358.40;2329.60;;;;;;4930129;29;20027;-84
2022/04/27 00:14:22;;;;;;;13.82;5.00;;;358.40;2329.60;;;;;;4946387;29;20024;-83
2022/04/27 00:16:48;;;;;;;8.75;4.35;;;358.40;2329.60;;;;;;4923633;29;20134;-85
2022/04/27 00:19:14;;;;;;;20.00;10.82;;;358.60;2329.60;;;;;;4904070;29;20036;-84
2022/04/27 00:21:40;;;;;;;27.20;14.77;;;333.60;2329.60;;;;;;4903616;29;20032;-84
2022/04/27 00:24:06;;;;;;;42.42;24.65;;;333.70;2329.60;;;;;;4903780;29;20028;-85
2022/04/27 00:26:33;;;;;;;19.08;11.38;;;333.50;2329.60;;;;;;4903770;29;20163;-82
2022/04/27 00:28:59;;;;;;;13.77;7.10;;;333.60;2329.60;;;;;;4888429;29;20048;-84
2022/04/27 00:31:31;;;;;;;11.63;6.45;;;358.40;2329.60;;;;;;4932054;29;20457;-84
2022/04/27 00:34:00;;;;;;;13.52;7.90;;;333.50;2329.60;;;;;;4922359;29;20028;-86
2022/04/27 00:36:27;;;;;;;13.15;7.95;;;333.40;2329.60;;;;;;4922545;29;20036;-85
2022/04/27 00:38:53;;;;;;;10.18;5.97;;;333.60;2329.60;;;;;;4922262;29;20027;-85
2022/04/27 00:45:05;;;;;;;;;;;;;;;;;;;;;
2022/04/27 00:48:14;;;;;;;6.63;4.07;;;333.40;2329.60;;;;;;4880037;29;20032;-86
2022/04/27 00:50:56;;;;;;;9.15;5.13;;;333.40;2329.60;;;;;;4897478;29;20516;-87
2022/04/27 01:01:34;;;;;;;;;;;;;;;;;;;;;
2022/04/27 01:05:12;;;;;;;8.35;4.55;;;333.10;2329.60;;;;;;4819220;29;20038;-84
2022/04/27 01:07:18;;;;;;;8.38;4.45;;;333.10;2329.60;;;;;;4829525;29;20069;-85
2022/04/27 01:09:44;;;;;;;9.50;5.00;;;333.30;2329.60;;;;;;4828118;29;20034;-84
2022/04/27 01:12:16;;;;;;;8.15;5.40;;;308.10;2304.00;;;;;;4863604;29;20033;-86
2022/04/27 01:14:53;;;;;;;8.15;4.78;;;333.10;2329.60;;;;;;4865128;29;20025;-86
2022/04/27 01:17:24;;;;;;;6.90;4.63;;;333.00;2329.60;;;;;;4865440;29;20037;-86
2022/04/27 01:19:59;;;;;;;7.15;4.00;;;333.00;2329.60;;;;;;4882217;29;20088;-85
2022/04/27 01:22:28;;;;;;;8.45;4.40;;;333.00;2329.60;;;;;;4850346;29;20025;-86
2022/04/27 01:24:56;;;;;;;7.88;4.13;;;332.90;2329.60;;;;;;4865825;29;20390;-86
2022/04/27 01:27:23;;;;;;;7.97;4.97;;;308.10;2304.00;;;;;;4865795;29;20051;-85
2022/04/27 01:29:55;;;;;;;8.95;5.25;;;332.90;2329.60;;;;;;4865044;29;20551;-87
2022/04/27 01:32:22;;;;;;;10.70;4.63;;;332.80;2329.60;;;;;;4865345;29;20053;-85
2022/04/27 01:34:54;;;;;;;6.75;4.55;;;333.00;2329.60;;;;;;4849984;29;20053;-87
2022/04/27 01:40:05;;;;;;;9.02;5.50;;;332.90;2329.60;;;;;;4882258;29;20066;-86
2022/04/27 01:42:48;;;;;;;8.68;5.93;;;332.90;2329.60;;;;;;4864885;29;20073;-87
2022/04/27 01:45:14;;;;;;;;;;;332.80;2329.60;;;;;;4881138;29;20029;-86
2022/04/27 01:47:41;;;;;;;9.02;5.55;;;332.90;2329.60;;;;;;4865626;29;19908;-85
2022/04/27 01:50:35;;;;;;;8.95;5.82;;;332.90;2329.60;;;;;;4864882;29;20028;-87
2022/04/27 01:55:50;;;;;;;8.35;5.57;;;332.90;2329.60;;;;;;4881628;29;20027;-86
2022/04/27 01:58:28;;;;;;;8.23;5.80;;;332.90;2329.60;;;;;;4864737;29;20041;-85
2022/04/27 02:01:36;;;;;;;7.35;4.25;;;332.80;2329.60;;;;;;4879980;29;20395;-82
2022/04/27 02:04:02;;;;;;;8.40;4.85;;;332.80;2329.60;;;;;;4870383;29;20045;-84
2022/04/27 02:06:31;;;;;;;11.05;5.50;;;308.00;2304.00;;;;;;4882810;29;20691;-85
2022/04/27 02:08:59;;;;;;;6.32;4.28;;;308.10;2304.00;;;;;;4882933;29;20066;-85
2022/04/27 02:11:30;;;;;;;7.22;3.90;;;308.00;2304.00;;;;;;4867551;29;20036;-86
2022/04/27 02:13:57;;;;;;;8.75;4.88;;;307.90;2304.00;;;;;;4883445;29;20032;-86
2022/04/27 02:16:28;;;;;;;6.60;3.92;;;307.80;2304.00;;;;;;4867774;29;20059;-84
2022/04/27 02:18:55;;;;;;;8.80;4.50;;;307.80;2304.00;;;;;;4867143;29;20041;-85
2022/04/27 02:21:31;;;;;;;6.63;4.13;;;307.80;2304.00;;;;;;4899662;29;20044;-85
2022/04/27 02:23:57;;;;;;;6.13;4.00;;;307.90;2304.00;;;;;;4882537;29;20036;-84
2022/04/27 02:26:26;;;;;;;5.53;3.97;;;307.80;2304.00;;;;;;4882927;29;20029;-87
2022/04/27 02:28:54;;;;;;;7.43;4.63;;;307.60;2304.00;;;;;;4882743;29;20036;-84
2022/04/27 02:31:21;;;;;;;10.18;4.60;;;307.60;2304.00;;;;;;4882540;29;20036;-86
2022/04/27 02:33:47;;;;;;;7.35;4.47;;;307.30;2304.00;;;;;;4867227;29;20085;-87
2022/04/27 02:53:47;;;;;;;8.40;3.60;;;307.20;2304.00;;;;;;4841361;29;20003;-85
2022/04/27 03:03:55;;;;;;;7.83;4.20;;;282.50;2278.40;;;;;;4864185;29;19967;-86
2022/04/27 03:14:25;;;;;;;6.38;4.22;;;282.00;2278.40;;;;;;4804539;29;20123;-85
2022/04/27 06:04:15;;;;;;;12.95;6.05;;;333.10;2329.60;;;;;;4900451;29;20052;-86
2022/04/27 06:09:57;;;;;;;15.38;6.63;;;333.30;2329.60;;;;;;4883481;29;20043;-85
2022/04/27 06:12:26;;;;;;;17.40;10.15;;;358.70;2329.60;;;;;;4884039;29;20055;-86
2022/04/27 06:14:58;;;;;;;13.38;6.10;;;333.60;2329.60;;;;;;4883169;29;20032;-83
2022/04/27 06:20:14;;;;;;;13.07;6.47;;;358.40;2329.60;;;;;;4893049;29;20037;-85
2022/04/27 06:22:40;;;;;;;15.80;6.00;;;358.60;2329.60;;;;;;4882865;29;20020;-82
2022/04/27 06:25:07;;;;;;;11.90;6.72;;;358.70;2329.60;;;;;;4882839;29;20031;-87
2022/04/27 06:27:34;;;;;;;15.73;6.63;;;358.80;2329.60;;;;;;4883287;29;20097;-87
2022/04/27 06:30:03;;;;;;;16.40;6.80;;;358.90;2329.60;;;;;;4882745;29;20114;-83
2022/04/27 06:32:31;;;;;;;16.35;7.10;;;359.00;2329.60;;;;;;4883090;29;20024;-84
2022/04/27 06:42:15;;;;;;;14.55;5.55;;;384.40;2329.60;;;;;;4835784;29;20064;-84
2022/04/27 06:45:11;;;;;;;12.63;5.35;;;384.90;2329.60;;;;;;4882755;29;20041;-86
2022/04/27 06:47:40;;;;;;;13.38;6.25;;;384.90;2329.60;;;;;;4880818;29;20039;-84
2022/04/27 06:50:17;;;;;;;14.38;7.43;;;409.70;2355.20;;;;;;4882486;29;20025;-83
2022/04/27 06:56:17;;;;;;;12.32;4.70;;;409.80;2355.20;;;;;;4915739;29;20545;-83
2022/04/27 06:58:46;;;;;;;9.63;5.97;;;410.10;2355.20;;;;;;4895331;29;20151;-84
2022/04/27 07:01:30;;;;;;;16.33;5.72;;;410.30;2355.20;;;;;;4900244;29;20521;-83
2022/04/27 07:03:56;;;;;;;10.80;5.10;;;410.20;2355.20;;;;;;4891849;29;20040;-84
2022/04/27 07:06:23;;;;;;;9.13;5.15;;;410.40;2355.20;;;;;;4881667;29;20047;-84
2022/04/27 07:08:50;;;;;;;11.27;6.63;;;410.50;2355.20;;;;;;4882089;29;20110;-83
2022/04/27 07:11:19;;;;;;;10.10;5.65;;;435.30;2355.20;;;;;;4882112;29;20032;-84
2022/04/27 07:13:45;;;;;;;12.90;5.80;;;435.50;2355.20;;;;;;4881930;29;20024;-83
2022/04/27 07:16:11;;;;;;;15.85;6.32;;;435.80;2355.20;;;;;;4882139;29;20035;-85
2022/04/27 07:18:37;;;;;;;8.80;4.82;;;436.10;2355.20;;;;;;4882219;29;20028;-85
2022/04/27 07:21:05;;;;;;;8.70;4.18;;;460.80;2380.80;;;;;;4882529;29;20033;-83
2022/04/27 07:23:31;;;;;;;10.93;5.03;;;461.00;2380.80;;;;;;4882115;29;20029;-83
2022/04/27 07:25:57;;;;;;;9.13;3.85;;;461.10;2380.80;;;;;;4881594;29;20024;-84
2022/04/27 07:28:23;;;;;;;9.15;3.67;;;461.20;2380.80;;;;;;4881744;29;20028;-83
2022/04/27 07:30:49;;;;;;;8.88;3.80;;;461.20;2380.80;;;;;;4887944;29;20028;-82
2022/04/27 07:33:14;;;;;;;7.05;3.70;;;461.40;2380.80;;;;;;4899595;29;20083;-83
2022/04/27 07:35:41;;;;;;;9.90;3.75;;;461.50;2380.80;;;;;;4895442;29;20573;-85
2022/04/27 07:38:07;;;;;;;9.93;3.97;;;461.50;2380.80;;;;;;4881157;29;20479;-85
2022/04/27 07:40:33;;;;;;;10.57;4.50;;;461.50;2380.80;;;;;;4887071;29;20123;-85
2022/04/27 07:42:59;;;;;;;8.13;4.18;;;461.60;2380.80;;;;;;4916314;29;20119;-83
2022/04/27 07:45:25;;;;;;;8.65;4.00;;;486.40;2380.80;;;;;;4913005;29;20079;-83
2022/04/27 07:47:51;;;;;;;11.13;4.40;;;486.70;2380.80;;;;;;4896912;29;20028;-80
2022/04/27 07:50:19;;;;;;;9.77;4.00;;;487.00;2380.80;;;;;;4896079;29;20036;-80
2022/04/27 07:52:46;;;;;;;12.00;4.15;;;487.10;2380.80;;;;;;4897402;29;20032;-79
2022/04/27 07:55:12;;;;;;;6.68;3.47;;;487.30;2380.80;;;;;;4896423;29;20087;-79
2022/04/27 07:57:38;;;;;;;9.50;3.45;;;512.30;2355.20;;;;;;4897138;29;20538;-82
2022/04/27 08:00:07;;;;;;;8.93;3.80;;;512.70;2329.60;;;;;;4897890;29;20032;-81
2022/04/27 08:02:32;;;;;;;6.82;4.90;;;512.60;2252.80;;;;;;4916213;29;20024;-81
2022/04/27 08:04:58;;;;;;;7.40;4.10;;;512.60;2278.40;;;;;;4916527;29;20161;-80
2022/04/27 08:07:24;;;;;;;8.85;3.78;;;512.70;2278.40;;;;;;4915811;29;20032;-79
2022/04/27 08:09:50;;;;;;;8.27;4.57;;;537.60;2304.00;;;;;;4915496;29;20055;-80
2022/04/27 08:12:15;;;;;;;5.18;2.80;;;537.80;2304.00;;;;;;4915612;29;20084;-79
2022/04/27 08:14:41;;;;;;;7.20;3.50;;;537.90;2201.60;;;;;;4915382;29;20028;-79
2022/04/27 08:17:07;;;;;;;6.75;3.53;;;538.20;2227.20;;;;;;4917930;29;20040;-78
2022/04/27 08:19:42;;;;;;;11.30;4.13;;;538.30;2227.20;;;;;;4903771;29;20088;-80
2022/04/27 08:22:38;;;;;;;7.68;4.07;;;538.50;2176.00;;;;;;4902824;29;20106;-80
2022/04/27 08:25:41;;;;;;;10.50;3.20;;;563.20;2176.00;;;;;;4902975;29;20106;-78
2022/04/27 08:28:20;;;;;;;;;;;563.20;2124.80;;;;;;4916183;29;20031;-80
2022/04/27 08:30:48;;;;;;;8.45;2.70;;;563.30;2099.20;;;;;;4929806;29;19935;-80
2022/04/27 08:33:14;;;;;;;16.30;3.80;;;538.50;2073.60;;;;;;4914180;29;20102;-81
2022/04/27 08:35:41;;;;;;;6.85;3.55;;;563.40;2124.80;;;;;;4914202;29;20389;-81
2022/04/27 08:38:08;;;;;;;10.02;3.20;;;563.20;2124.80;;;;;;4906468;29;20479;-86
2022/04/27 08:40:39;;;;;;;8.63;3.58;;;563.30;2124.80;;;;;;4918904;29;20058;-83
2022/04/27 08:43:48;;;;;;;10.20;4.03;;;563.60;2124.80;;;;;;4903729;29;20382;-84
2022/04/27 08:46:17;;;;;;;7.00;4.10;;;563.50;2073.60;;;;;;4916501;29;20139;-84
2022/04/27 08:48:49;;;;;;;10.32;4.00;;;563.30;2073.60;;;;;;4902791;29;20032;-83
2022/04/27 08:51:15;;;;;;;5.45;2.80;;;563.30;2099.20;;;;;;4902451;29;20047;-83
2022/04/27 08:53:46;;;;;;;4.55;2.65;;;563.30;2099.20;;;;;;4918826;29;20028;-86
2022/04/27 08:56:18;;;;;;;8.15;2.80;;;538.50;2048.00;;;;;;4917870;29;20530;-83
2022/04/27 08:58:44;;;;;;;;;;;538.50;2073.60;;;;;;4918760;29;20087;-84
2022/04/27 09:01:12;;;;;;;7.13;2.42;;;538.40;2073.60;;;;;;4902511;29;19953;-81
2022/04/27 09:03:39;;;;;;;4.40;2.50;;;538.20;2099.20;;;;;;4917302;29;20040;-84
2022/04/27 09:06:13;;;;;;;8.00;3.22;;;538.50;2073.60;;;;;;4902592;29;20369;-84
2022/04/27 09:08:52;;;;;;;6.97;2.72;;;563.50;2073.60;;;;;;4918461;29;20029;-83
2022/04/27 09:11:33;;;;;;;5.50;2.85;;;563.80;2073.60;;;;;;4917659;29;20044;-84
2022/04/27 09:14:04;;;;;;;6.68;3.00;;;589.10;2022.40;;;;;;4918011;29;20032;-85
2022/04/27 09:22:26;;;;;;;11.13;3.90;;;589.10;1971.20;;;;;;4920243;29;20405;-84
2022/04/27 09:24:55;;;;;;;9.02;3.60;;;589.40;1971.20;;;;;;4903043;29;20389;-85
2022/04/27 09:27:28;;;;;;;10.73;4.75;;;589.60;1894.40;;;;;;4902847;29;20115;-84
2022/04/27 09:30:02;;;;;;;8.43;3.90;;;589.70;1894.40;;;;;;4902946;29;20070;-81
2022/04/27 09:32:34;;;;;;;4.93;2.53;;;589.70;1868.80;;;;;;4904461;29;20520;-82
2022/04/27 09:35:03;;;;;;;7.05;2.47;;;589.70;1868.80;;;;;;4917220;29;20088;-85
2022/04/27 09:37:48;;;;;;;8.05;3.78;;;589.50;1843.20;;;;;;4920053;29;20024;-80
2022/04/27 09:40:16;;;;;;;5.07;2.78;;;614.50;1843.20;;;;;;4903771;29;20158;-83
2022/04/27 09:42:46;;;;;;;7.93;3.75;;;614.80;1843.20;;;;;;4903007;29;20083;-81
2022/04/27 09:45:26;;;;;;;8.32;3.28;;;614.90;1843.20;;;;;;4902203;29;20028;-83
2022/04/27 09:48:08;;;;;;;7.03;2.45;;;615.20;1817.60;;;;;;4902892;29;20029;-81
2022/04/27 09:51:03;;;;;;;6.88;2.10;;;615.30;1792.00;;;;;;4902268;29;20072;-82
2022/04/27 09:53:53;;;;;;;6.03;2.95;;;640.20;1766.40;;;;;;4902668;29;20473;-82
2022/04/27 09:56:21;;;;;;;9.27;2.58;;;640.20;1740.80;;;;;;4900758;29;20043;-82
2022/04/27 09:58:58;;;;;;;7.53;3.05;;;640.50;1740.80;;;;;;4902013;29;20399;-80
2022/04/27 10:01:24;;;;;;;6.55;2.20;;;640.90;1715.20;;;;;;4898083;29;20029;-81
2022/04/27 10:03:57;;;;;;;4.68;2.00;;;589.10;1689.60;;;;;;4883634;29;20451;-84
2022/04/27 10:06:23;;;;;;;4.88;2.00;;;665.60;1715.20;;;;;;4882963;29;20031;-82
2022/04/27 10:08:53;;;;;;;7.65;2.58;;;665.70;1715.20;;;;;;4883683;29;20028;-81
2022/04/27 10:11:20;;;;;;;6.00;2.13;;;665.70;1689.60;;;;;;4895999;29;20032;-83
2022/04/27 10:13:52;;;;;;;4.47;2.33;;;665.70;1689.60;;;;;;4902246;29;20391;-80
2022/04/27 10:16:19;;;;;;;5.18;2.53;;;666.10;1689.60;;;;;;4901503;29;20035;-83
2022/04/27 10:22:02;;;;;;;5.70;2.38;;;666.50;1638.40;;;;;;4883201;29;20033;-83
2022/04/27 10:25:01;;;;;;;3.53;1.85;;;691.30;1638.40;;;;;;4901660;29;20024;-84
2022/04/27 10:27:37;;;;;;;4.30;1.90;;;691.30;1587.20;;;;;;4886462;29;20040;-83
2022/04/27 10:30:13;;;;;;;4.00;1.83;;;691.60;1612.80;;;;;;4883133;29;20036;-81
2022/04/27 10:32:59;;;;;;;4.90;1.92;;;691.30;1612.80;;;;;;4882972;29;20119;-84
2022/04/27 10:36:14;;;;;;;5.13;2.38;;;691.30;1612.80;;;;;;4882276;29;20024;-83
2022/04/27 10:42:19;;;;;;;5.43;2.30;;;691.80;1587.20;;;;;;4885088;29;20103;-81
2022/04/27 10:44:58;;;;;;;7.30;2.70;;;691.80;1612.80;;;;;;4882596;29;20064;-82
2022/04/27 10:47:35;;;;;;;9.32;3.45;;;716.80;1612.80;;;;;;4883505;29;20111;-82
2022/04/27 10:50:10;;;;;;;5.93;2.50;;;717.00;1638.40;;;;;;4882453;29;20024;-80
2022/04/27 10:52:55;;;;;;;7.22;2.70;;;717.10;1587.20;;;;;;4882543;29;20024;-82
2022/04/27 10:55:40;;;;;;;6.50;2.13;;;717.40;1587.20;;;;;;4881765;29;20088;-83
2022/04/27 10:58:13;;;;;;;6.07;1.70;;;717.40;1561.60;;;;;;4882812;29;20471;-83
2022/04/27 11:00:57;;;;;;;7.20;2.42;;;717.40;1587.20;;;;;;4882638;29;20033;-82
2022/04/27 11:03:25;;;;;;;4.78;2.13;;;717.40;1561.60;;;;;;4882293;29;20083;-81
2022/04/27 11:06:11;;;;;;;7.95;2.92;;;717.50;1561.60;;;;;;4882340;29;20020;-83
2022/04/27 11:09:14;;;;;;;6.15;2.80;;;717.50;1561.60;;;;;;4882503;29;20028;-82
2022/04/27 11:12:17;;;;;;;8.45;2.78;;;717.70;1587.20;;;;;;4881720;29;20025;-81
2022/04/27 11:14:47;;;;;;;4.35;1.90;;;742.50;1587.20;;;;;;4884449;29;20048;-81
2022/04/27 11:17:26;;;;;;;8.85;4.28;;;742.50;1536.00;;;;;;4899599;29;20032;-80
2022/04/27 11:19:52;;;;;;;6.47;2.40;;;717.70;1536.00;;;;;;4882892;29;20031;-83
2022/04/27 11:22:18;;;;;;;5.97;2.85;;;742.40;1536.00;;;;;;4882371;29;20025;-83
2022/04/27 11:24:48;;;;;;;7.05;3.08;;;717.70;1510.40;;;;;;4916255;29;20502;-83
2022/04/27 11:27:26;;;;;;;5.60;3.15;;;717.20;1510.40;;;;;;4901790;29;20032;-83
2022/04/27 11:29:52;;;;;;;10.13;4.55;;;717.50;1536.00;;;;;;4901610;29;20039;-83
2022/04/27 11:32:18;;;;;;;8.70;4.18;;;742.40;1536.00;;;;;;4900735;29;20036;-83
2022/04/27 11:34:48;;;;;;;6.50;2.20;;;742.60;1510.40;;;;;;4901035;29;20036;-82
2022/04/27 11:37:19;;;;;;;7.40;3.10;;;742.80;1510.40;;;;;;4900305;29;20056;-82
2022/04/27 11:39:45;;;;;;;7.30;3.85;;;743.10;1536.00;;;;;;4901274;29;20478;-83
2022/04/27 11:42:12;;;;;;;8.88;3.47;;;743.20;1459.20;;;;;;4900761;29;20071;-82
2022/04/27 11:44:41;;;;;;;7.30;2.75;;;743.30;1484.80;;;;;;4900882;29;20032;-83
2022/04/27 11:47:28;;;;;;;5.07;2.70;;;768.00;1484.80;;;;;;4900853;29;20024;-83
2022/04/27 11:49:59;;;;;;;5.32;2.60;;;768.20;1459.20;;;;;;4917242;29;20145;-83
2022/04/27 11:52:25;;;;;;;5.10;3.00;;;768.20;1484.80;;;;;;4917353;29;20075;-82
2022/04/27 11:54:51;;;;;;;5.35;2.47;;;768.30;1459.20;;;;;;4900674;29;20483;-83
2022/04/27 11:57:24;;;;;;;7.65;2.30;;;768.50;1459.20;;;;;;4900703;29;20100;-82
2022/04/27 11:59:51;;;;;;;10.55;3.47;;;768.40;1408.00;;;;;;4900489;29;20032;-81
2022/04/27 12:02:22;;;;;;;5.72;2.67;;;768.60;1459.20;;;;;;4900396;29;20059;-83
2022/04/27 12:04:52;;;;;;;6.68;2.90;;;768.80;1459.20;;;;;;4900164;29;20043;-82
2022/04/27 12:07:22;;;;;;;6.05;2.50;;;768.80;1433.60;;;;;;4900318;29;20024;-83
2022/04/27 12:10:10;;;;;;;4.80;2.50;;;768.90;1459.20;;;;;;4900998;29;20020;-83
2022/04/27 12:12:39;;;;;;;5.97;3.30;;;768.90;1408.00;;;;;;4900590;29;20060;-83
2022/04/27 12:15:11;;;;;;;7.13;3.47;;;793.80;1459.20;;;;;;4900501;29;20083;-82
2022/04/27 12:17:48;;;;;;;11.88;3.55;;;793.90;1459.20;;;;;;4901025;29;20201;-83
2022/04/27 12:20:39;;;;;;;8.82;3.95;;;794.10;1433.60;;;;;;4899990;29;20075;-81
2022/04/27 12:23:07;;;;;;;22.80;5.13;;;793.70;1408.00;;;;;;4900759;29;20111;-82
2022/04/27 12:25:37;;;;;;;11.77;3.92;;;794.10;1408.00;;;;;;4900033;29;20025;-84
2022/04/27 12:28:06;;;;;;;8.25;4.05;;;794.10;1408.00;;;;;;4884456;29;20047;-83
2022/04/27 12:30:43;;;;;;;6.80;3.58;;;794.20;1433.60;;;;;;4886781;29;20029;-81
2022/04/27 12:33:12;;;;;;;7.22;3.60;;;794.30;1382.40;;;;;;4881621;29;20400;-82
2022/04/27 12:38:27;;;;;;;9.85;4.05;;;794.00;1382.40;;;;;;4911963;29;20044;-83
2022/04/27 12:40:53;;;;;;;10.93;4.53;;;793.70;1408.00;;;;;;4899772;29;20048;-81
2022/04/27 12:43:22;;;;;;;13.63;7.22;;;793.60;1382.40;;;;;;4900392;29;20171;-82
2022/04/27 12:46:10;;;;;;;4.90;2.72;;;793.70;1408.00;;;;;;4899978;29;20032;-84
2022/04/27 12:48:36;;;;;;;5.78;4.05;;;794.10;1408.00;;;;;;4900421;29;20024;-84
2022/04/27 12:51:04;;;;;;;10.45;4.35;;;794.30;1408.00;;;;;;4901159;29;20032;-82
2022/04/27 12:53:30;;;;;;;7.55;4.32;;;794.20;1356.80;;;;;;4901825;29;20027;-84
2022/04/27 12:56:10;;;;;;;9.43;3.55;;;819.20;1382.40;;;;;;4912902;29;20032;-82
2022/04/27 12:58:37;;;;;;;4.60;2.35;;;794.50;1356.80;;;;;;4923623;29;20020;-82
2022/04/27 13:01:04;;;;;;;7.15;3.40;;;794.30;1356.80;;;;;;4923102;29;20033;-83
2022/04/27 13:03:34;;;;;;;11.35;3.72;;;794.10;1356.80;;;;;;4925026;29;20016;-82
2022/04/27 13:06:00;;;;;;;6.05;3.58;;;794.10;1356.80;;;;;;4926683;29;20020;-83
2022/04/27 13:08:26;;;;;;;7.95;3.88;;;794.30;1408.00;;;;;;4927354;29;20064;-83
2022/04/27 13:13:36;;;;;;;8.85;3.70;;;819.30;1382.40;;;;;;4921666;29;20482;-85
2022/04/27 13:16:02;;;;;;;6.30;3.03;;;794.20;1356.80;;;;;;4904333;29;20036;-86
2022/04/27 13:18:28;;;;;;;9.45;4.70;;;794.00;1356.80;;;;;;4906603;29;20043;-81
2022/04/27 13:20:54;;;;;;;9.95;3.80;;;793.60;1356.80;;;;;;4908019;29;20020;-81
2022/04/27 13:23:21;;;;;;;9.77;3.50;;;793.70;1382.40;;;;;;4907776;29;20032;-84
2022/04/27 13:25:47;;;;;;;11.23;4.05;;;819.20;1382.40;;;;;;4907302;29;20028;-80
2022/04/27 13:28:13;;;;;;;10.13;3.10;;;794.40;1356.80;;;;;;4924550;29;20035;-82
2022/04/27 13:30:40;;;;;;;13.50;3.50;;;794.50;1356.80;;;;;;4908888;29;20063;-82
2022/04/27 13:33:06;;;;;;;6.72;2.58;;;794.20;1382.40;;;;;;4908731;29;20024;-83
2022/04/27 13:35:32;;;;;;;4.50;2.20;;;768.10;1382.40;;;;;;4908321;29;20064;-82
2022/04/27 13:37:59;;;;;;;11.60;2.47;;;743.20;1408.00;;;;;;4907994;29;20087;-84
2022/04/27 13:40:24;;;;;;;7.13;2.53;;;743.00;1408.00;;;;;;4908024;29;20035;-81
2022/04/27 13:42:50;;;;;;;7.85;3.55;;;742.90;1459.20;;;;;;4910223;29;20028;-83
2022/04/27 13:45:16;;;;;;;8.57;4.15;;;742.80;1433.60;;;;;;4910309;29;20398;-85
2022/04/27 13:47:42;;;;;;;12.80;6.85;;;768.10;1408.00;;;;;;4905341;29;20032;-84
2022/04/27 13:50:09;;;;;;;9.75;3.97;;;768.60;1408.00;;;;;;4901704;29;20103;-83
2022/04/27 13:52:35;;;;;;;8.82;3.80;;;793.70;1433.60;;;;;;4902514;29;20032;-83
2022/04/27 13:55:02;;;;;;;10.55;4.85;;;793.70;1408.00;;;;;;4902190;29;20028;-83
2022/04/27 13:57:28;;;;;;;5.75;3.20;;;793.90;1382.40;;;;;;4911424;29;20068;-81
2022/04/27 13:59:56;;;;;;;11.38;4.43;;;793.70;1382.40;;;;;;4917820;29;20028;-82
2022/04/27 14:02:23;;;;;;;13.75;6.88;;;793.90;1382.40;;;;;;4891752;29;20062;-84
2022/04/27 14:04:49;;;;;;;9.40;4.97;;;794.10;1356.80;;;;;;4883558;29;20028;-85
2022/04/27 14:07:15;;;;;;;11.02;5.65;;;794.20;1356.80;;;;;;4883523;29;20149;-85
2022/04/27 14:09:41;;;;;;;11.68;5.47;;;794.30;1356.80;;;;;;4884220;29;20069;-85
2022/04/27 14:14:51;;;;;;;8.57;5.13;;;794.10;1331.20;;;;;;4900409;29;20084;-84
2022/04/27 14:20:02;;;;;;;5.93;2.78;;;768.60;1382.40;;;;;;4904647;29;20039;-83
2022/04/27 14:22:28;;;;;;;7.38;3.55;;;768.10;1382.40;;;;;;4883787;29;20069;-87
2022/04/27 14:24:55;;;;;;;5.60;2.85;;;768.50;1408.00;;;;;;4884341;29;20037;-86
2022/04/27 14:27:21;;;;;;;7.22;3.25;;;768.90;1356.80;;;;;;4884125;29;20059;-83
2022/04/27 14:29:47;;;;;;;7.85;2.80;;;793.90;1382.40;;;;;;4898518;29;20127;-82
2022/04/27 14:32:13;;;;;;;4.75;2.08;;;794.00;1356.80;;;;;;4883357;29;20463;-84
2022/04/27 14:34:38;;;;;;;7.47;2.67;;;793.90;1356.80;;;;;;4883657;29;20033;-83
2022/04/27 14:37:05;;;;;;;4.10;2.13;;;794.00;1382.40;;;;;;4882930;29;20032;-84
2022/04/27 14:39:31;;;;;;;7.53;3.03;;;794.10;1356.80;;;;;;4900124;29;20033;-85
2022/04/27 14:41:57;;;;;;;9.10;2.75;;;794.30;1356.80;;;;;;4883077;29;20092;-83
2022/04/27 14:44:23;;;;;;;6.63;1.85;;;794.40;1382.40;;;;;;4882956;29;20029;-85
2022/04/27 14:46:49;;;;;;;6.65;2.60;;;794.10;1356.80;;;;;;4882700;29;20029;-82
2022/04/27 14:49:18;;;;;;;5.20;2.53;;;793.60;1382.40;;;;;;4882660;29;20068;-82
2022/04/27 14:51:44;;;;;;;5.75;2.28;;;793.70;1382.40;;;;;;4882783;29;20137;-82
2022/04/27 14:54:11;;;;;;;10.68;3.05;;;793.80;1382.40;;;;;;4882690;29;20049;-82
2022/04/27 14:56:38;;;;;;;8.52;3.80;;;768.70;1382.40;;;;;;4882515;29;20275;-82
2022/04/27 14:59:04;;;;;;;12.00;2.83;;;768.70;1408.00;;;;;;4882769;29;20423;-82
2022/04/27 15:01:30;;;;;;;5.75;2.85;;;768.90;1382.40;;;;;;4882019;29;20028;-83
2022/04/27 15:03:59;;;;;;;4.50;2.30;;;793.70;1433.60;;;;;;4882792;29;20035;-83
2022/04/27 15:06:26;;;;;;;8.32;3.17;;;793.90;1408.00;;;;;;4897450;29;20024;-82
2022/04/27 15:08:51;;;;;;;7.88;3.25;;;794.00;1408.00;;;;;;4897995;29;20040;-83
2022/04/27 15:11:17;;;;;;;6.72;2.75;;;793.90;1382.40;;;;;;4901293;29;20036;-83
2022/04/27 15:13:47;;;;;;;6.30;3.40;;;793.70;1356.80;;;;;;4901049;29;20075;-82
2022/04/27 15:16:13;;;;;;;4.47;2.78;;;793.60;1356.80;;;;;;4893229;29;20115;-83
2022/04/27 15:18:39;;;;;;;10.75;6.22;;;793.70;1382.40;;;;;;4881796;29;20076;-83
2022/04/27 15:23:51;;;;;;;5.55;2.40;;;793.70;1408.00;;;;;;4899243;29;20056;-82
2022/04/27 15:26:18;;;;;;;7.47;3.40;;;768.10;1408.00;;;;;;4881134;29;20554;-82
2022/04/27 15:28:44;;;;;;;5.60;3.05;;;768.00;1408.00;;;;;;4899253;29;20028;-82
2022/04/27 15:31:10;;;;;;;5.82;2.95;;;743.20;1433.60;;;;;;4899009;29;20033;-83
2022/04/27 15:33:35;;;;;;;5.35;3.65;;;743.20;1433.60;;;;;;4882671;29;20058;-83
2022/04/27 15:36:01;;;;;;;6.00;3.67;;;743.00;1459.20;;;;;;4882225;29;20066;-83
2022/04/27 15:38:27;;;;;;;9.57;3.50;;;743.00;1459.20;;;;;;4882274;29;20076;-82
2022/04/27 15:40:53;;;;;;;11.05;3.05;;;742.70;1459.20;;;;;;4882328;29;20052;-83
2022/04/27 15:43:20;;;;;;;8.43;4.30;;;742.50;1484.80;;;;;;4881988;29;20054;-84
2022/04/27 15:45:46;;;;;;;14.95;9.18;;;717.40;1484.80;;;;;;4881932;29;20033;-83
2022/04/27 15:48:12;;;;;;;12.00;5.63;;;716.90;1510.40;;;;;;4882157;29;20039;-81
2022/04/27 15:50:37;;;;;;;7.88;3.35;;;691.90;1510.40;;;;;;4881345;29;20043;-84
2022/04/27 15:53:06;;;;;;;8.65;3.67;;;691.90;1510.40;;;;;;4882637;29;20024;-83
2022/04/27 15:55:32;;;;;;;5.75;4.05;;;691.90;1510.40;;;;;;4898634;29;20025;-83
2022/04/27 15:58:00;;;;;;;10.80;4.72;;;691.60;1536.00;;;;;;4881773;29;20087;-83
2022/04/27 16:00:27;;;;;;;8.00;3.90;;;691.40;1536.00;;;;;;4882642;29;20044;-83
2022/04/27 16:02:53;;;;;;;9.15;3.75;;;691.30;1561.60;;;;;;4882001;29;20061;-82
2022/04/27 16:05:18;;;;;;;6.65;3.03;;;691.20;1561.60;;;;;;4882061;29;20033;-83
2022/04/27 16:07:45;;;;;;;14.02;3.92;;;666.30;1561.60;;;;;;4885430;29;20041;-82
2022/04/27 16:10:11;;;;;;;7.70;3.60;;;666.10;1587.20;;;;;;4884155;29;20025;-80
2022/04/27 16:12:39;;;;;;;11.15;3.88;;;666.00;1587.20;;;;;;4881821;29;20394;-83
2022/04/27 16:15:07;;;;;;;8.88;3.47;;;665.80;1587.20;;;;;;4881978;29;20060;-83
2022/04/27 16:17:33;;;;;;;7.07;2.83;;;665.70;1612.80;;;;;;4882018;29;20462;-83
2022/04/27 16:19:59;;;;;;;5.10;2.75;;;665.60;1612.80;;;;;;4882134;29;20029;-82
2022/04/27 16:25:10;;;;;;;5.05;2.22;;;665.80;1638.40;;;;;;4898350;29;20040;-82
2022/04/27 16:27:36;;;;;;;7.80;2.58;;;640.60;1612.80;;;;;;4885876;29;20029;-80
2022/04/27 16:30:03;;;;;;;6.47;2.80;;;640.50;1612.80;;;;;;4900454;29;20032;-81
2022/04/27 16:32:29;;;;;;;8.52;3.50;;;640.50;1612.80;;;;;;4884494;29;20119;-83
2022/04/27 16:34:55;;;;;;;6.32;3.20;;;640.40;1612.80;;;;;;4898477;29;20500;-83
2022/04/27 16:37:21;;;;;;;7.60;3.28;;;640.20;1638.40;;;;;;4882107;29;20048;-85
2022/04/27 16:39:47;;;;;;;14.45;5.28;;;640.10;1638.40;;;;;;4885402;29;20033;-84
2022/04/27 16:42:13;;;;;;;7.07;3.85;;;640.10;1638.40;;;;;;4885325;29;20044;-86
2022/04/27 16:44:39;;;;;;;7.72;4.05;;;615.30;1664.00;;;;;;4885642;29;20024;-86
2022/04/27 16:47:05;;;;;;;7.40;3.90;;;615.30;1664.00;;;;;;4885243;29;20107;-87
2022/04/27 16:49:31;;;;;;;9.20;5.63;;;615.30;1664.00;;;;;;4884690;29;20124;-85
2022/04/27 16:52:00;;;;;;;5.82;3.03;;;615.20;1664.00;;;;;;4884467;29;20060;-85
2022/04/27 16:54:25;;;;;;;6.93;3.88;;;615.20;1689.60;;;;;;4885234;29;20474;-85
2022/04/27 16:56:51;;;;;;;8.75;4.00;;;614.90;1689.60;;;;;;4884568;29;20040;-84
2022/04/27 16:59:17;;;;;;;5.85;3.65;;;615.00;1689.60;;;;;;4884930;29;20041;-87